Wabigoon, Canada
Current Conditions -  °F | °C
As of 8:16 AM on Monday 22 Dec 2014 (Local Time) from CYHD Reporting Station
Haze Haze  
Wind Chill: 26°   Ceiling: 300
Heat Index: 32°   Visibility: 0.75mi
Dew Point: 32°   Wind: 7mph
Humidity: 100%   Direction: 130°SE
Pressure: 29.68"   Gusts: NA
Location:  49.72°N, 92.6°W
Report Text: CYHD 221416Z AUTO 13006KT 3/4SM R12/P6000FT/D BR VV003 M00/M00 A2968 RMK SLP073
Loading
Personal Weather Stations






























Interactive Weather Map New forecast layout! Learn more

10-Day Weather Forecast

Advertisements
Track Severe Weather on mobile